sensor_id;sensor_type;location;lat;lon;timestamp;pressure;altitude;pressure_sealevel;temperature;humidity
12801;BME280;6464;42.494;27.470;2022-10-01T00:01:12;101579.38;;;18.59;100.00
12801;BME280;6464;42.494;27.470;2022-10-01T00:03:40;101514.38;;;18.13;100.00
12801;BME280;6464;42.494;27.470;2022-10-01T00:06:11;101483.53;;;18.05;100.00
12801;BME280;6464;42.494;27.470;2022-10-01T00:08:40;101580.19;;;18.61;100.00
12801;BME280;6464;42.494;27.470;2022-10-01T00:11:10;101571.28;;;18.62;100.00
12801;BME280;6464;42.494;27.470;2022-10-01T00:13:41;101451.09;;;17.92;100.00
12801;BME280;6464;42.494;27.470;2022-10-01T00:16:10;101561.56;;;18.60;100.00
12801;BME280;6464;42.494;27.470;2022-10-01T00:18:39;101557.94;;;18.61;100.00
12801;BME280;6464;42.494;27.470;2022-10-01T00:21:07;101503.84;;;18.32;100.00
12801;BME280;6464;42.494;27.470;2022-10-01T00:23:35;101558.03;;;18.59;100.00
12801;BME280;6464;42.494;27.470;2022-10-01T00:26:11;101514.59;;;18.31;100.00
12801;BME280;6464;42.494;27.470;2022-10-01T00:28:41;101525.09;;;18.35;100.00
12801;BME280;6464;42.494;27.470;2022-10-01T00:31:09;101415.63;;;17.65;100.00
12801;BME280;6464;42.494;27.470;2022-10-01T00:33:37;101503.31;;;18.22;100.00
12801;BME280;6464;42.494;27.470;2022-10-01T00:36:05;101424.13;;;17.76;100.00
12801;BME280;6464;42.494;27.470;2022-10-01T00:38:33;101479.00;;;18.07;100.00
12801;BME280;6464;42.494;27.470;2022-10-01T00:41:01;101519.22;;;18.26;100.00
12801;BME280;6464;42.494;27.470;2022-10-01T00:43:32;101503.72;;;18.12;100.00
12801;BME280;6464;42.494;27.470;2022-10-01T00:46:07;101556.03;;;18.41;100.00
12801;BME280;6464;42.494;27.470;2022-10-01T00:48:41;101424.22;;;17.48;100.00
12801;BME280;6464;42.494;27.470;2022-10-01T00:51:10;101427.50;;;17.56;100.00
12801;BME280;6464;42.494;27.470;2022-10-01T00:53:39;101418.81;;;17.50;100.00
12801;BME280;6464;42.494;27.470;2022-10-01T00:56:06;101464.06;;;17.78;100.00
12801;BME280;6464;42.494;27.470;2022-10-01T00:58:33;101542.81;;;18.14;100.00
12801;BME280;6464;42.494;27.470;2022-10-01T04:03:03;101641.59;;;17.05;100.00
12801;BME280;6464;42.494;27.470;2022-10-01T04:05:31;101655.47;;;17.16;100.00
12801;BME280;6464;42.494;27.470;2022-10-01T04:07:58;101690.41;;;17.35;100.00
12801;BME280;6464;42.494;27.470;2022-10-01T04:10:25;101683.66;;;17.24;100.00
12801;BME280;6464;42.494;27.470;2022-10-01T04:12:53;101532.44;;;16.43;100.00
12801;BME280;6464;42.494;27.470;2022-10-01T04:15:20;101672.28;;;17.18;100.00
12801;BME280;6464;42.494;27.470;2022-10-01T04:17:49;101604.28;;;16.76;100.00
12801;BME280;6464;42.494;27.470;2022-10-01T04:20:18;101701.66;;;17.45;100.00
12801;BME280;6464;42.494;27.470;2022-10-01T04:22:45;101537.63;;;16.48;100.00
12801;BME280;6464;42.494;27.470;2022-10-01T04:25:12;101621.31;;;17.00;100.00
12801;BME280;6464;42.494;27.470;2022-10-01T04:27:40;101699.00;;;17.45;100.00
12801;BME280;6464;42.494;27.470;2022-10-01T04:30:09;101636.69;;;17.19;100.00
12801;BME280;6464;42.494;27.470;2022-10-01T04:32:36;101584.44;;;16.86;100.00
12801;BME280;6464;42.494;27.470;2022-10-01T04:35:05;101540.94;;;16.56;100.00
12801;BME280;6464;42.494;27.470;2022-10-01T04:37:37;101553.13;;;16.64;100.00
12801;BME280;6464;42.494;27.470;2022-10-01T04:40:04;101579.38;;;16.77;100.00
12801;BME280;6464;42.494;27.470;2022-10-01T04:42:32;101611.31;;;17.08;100.00
12801;BME280;6464;42.494;27.470;2022-10-01T04:44:59;101547.06;;;16.59;100.00
12801;BME280;6464;42.494;27.470;2022-10-01T04:47:26;101664.59;;;17.37;100.00
12801;BME280;6464;42.494;27.470;2022-10-01T04:49:53;101700.34;;;17.58;100.00
12801;BME280;6464;42.494;27.470;2022-10-01T04:52:21;101675.31;;;17.36;100.00
12801;BME280;6464;42.494;27.470;2022-10-01T04:54:49;101735.63;;;17.68;100.00
12801;BME280;6464;42.494;27.470;2022-10-01T04:57:17;101656.84;;;17.00;100.00
12801;BME280;6464;42.494;27.470;2022-10-01T04:59:46;101699.66;;;17.24;100.00
12801;BME280;6464;42.494;27.470;2022-10-01T05:02:13;101758.84;;;17.64;100.00
12801;BME280;6464;42.494;27.470;2022-10-01T05:04:41;101633.47;;;16.80;100.00
12801;BME280;6464;42.494;27.470;2022-10-01T05:07:09;101627.19;;;16.83;100.00
12801;BME280;6464;42.494;27.470;2022-10-01T05:09:36;101632.47;;;16.84;100.00
12801;BME280;6464;42.494;27.470;2022-10-01T05:12:05;101744.44;;;17.42;100.00
12801;BME280;6464;42.494;27.470;2022-10-01T05:14:32;101811.09;;;17.71;100.00
12801;BME280;6464;42.494;27.470;2022-10-01T05:16:59;101797.97;;;17.65;100.00
12801;BME280;6464;42.494;27.470;2022-10-01T05:19:27;101741.34;;;17.56;100.00
12801;BME280;6464;42.494;27.470;2022-10-01T05:21:55;101753.16;;;17.77;100.00
12801;BME280;6464;42.494;27.470;2022-10-01T05:24:22;101695.94;;;17.57;100.00
12801;BME280;6464;42.494;27.470;2022-10-01T05:26:50;101742.13;;;17.87;100.00
12801;BME280;6464;42.494;27.470;2022-10-01T05:29:20;101708.47;;;17.55;100.00
12801;BME280;6464;42.494;27.470;2022-10-01T05:31:47;101660.84;;;17.43;100.00
12801;BME280;6464;42.494;27.470;2022-10-01T05:34:14;101767.06;;;18.14;100.00
12801;BME280;6464;42.494;27.470;2022-10-01T05:36:42;101825.44;;;18.52;100.00
12801;BME280;6464;42.494;27.470;2022-10-01T05:39:09;101852.84;;;18.58;100.00
12801;BME280;6464;42.494;27.470;2022-10-01T05:41:36;101688.38;;;17.71;100.00
12801;BME280;6464;42.494;27.470;2022-10-01T05:44:05;101858.41;;;18.52;100.00
12801;BME280;6464;42.494;27.470;2022-10-01T05:46:34;101717.88;;;17.67;100.00
12801;BME280;6464;42.494;27.470;2022-10-01T05:49:01;101864.00;;;18.71;100.00
12801;BME280;6464;42.494;27.470;2022-10-01T05:51:28;101809.91;;;18.38;100.00
12801;BME280;6464;42.494;27.470;2022-10-01T05:53:56;101781.00;;;18.22;100.00
12801;BME280;6464;42.494;27.470;2022-10-01T05:56:29;101768.06;;;18.37;100.00
12801;BME280;6464;42.494;27.470;2022-10-01T05:58:57;101744.56;;;18.21;100.00
12801;BME280;6464;42.494;27.470;2022-10-01T06:01:25;101768.38;;;18.54;100.00
12801;BME280;6464;42.494;27.470;2022-10-01T06:03:54;101764.19;;;18.47;100.00
12801;BME280;6464;42.494;27.470;2022-10-01T06:06:21;101931.81;;;19.45;100.00
12801;BME280;6464;42.494;27.470;2022-10-01T06:08:49;101931.34;;;19.57;100.00
12801;BME280;6464;42.494;27.470;2022-10-01T06:11:16;101934.34;;;19.74;100.00
12801;BME280;6464;42.494;27.470;2022-10-01T06:13:44;101873.41;;;19.33;100.00
12801;BME280;6464;42.494;27.470;2022-10-01T06:16:11;101934.22;;;19.77;100.00
12801;BME280;6464;42.494;27.470;2022-10-01T06:18:39;101801.50;;;19.00;100.00
12801;BME280;6464;42.494;27.470;2022-10-01T06:21:08;101870.50;;;19.39;100.00
12801;BME280;6464;42.494;27.470;2022-10-01T06:23:35;101837.94;;;19.27;100.00
12801;BME280;6464;42.494;27.470;2022-10-01T06:26:04;101904.19;;;19.69;100.00
12801;BME280;6464;42.494;27.470;2022-10-01T06:28:31;101954.34;;;20.11;100.00
12801;BME280;6464;42.494;27.470;2022-10-01T06:31:00;101953.09;;;19.98;100.00
12801;BME280;6464;42.494;27.470;2022-10-01T06:33:30;101924.91;;;19.88;100.00
12801;BME280;6464;42.494;27.470;2022-10-01T06:35:57;101997.00;;;20.39;100.00
12801;BME280;6464;42.494;27.470;2022-10-01T06:38:26;101947.81;;;20.18;100.00
12801;BME280;6464;42.494;27.470;2022-10-01T06:40:55;101924.59;;;19.95;100.00
12801;BME280;6464;42.494;27.470;2022-10-01T06:43:23;101953.59;;;20.31;100.00
12801;BME280;6464;42.494;27.470;2022-10-01T06:45:50;101990.34;;;20.73;100.00
12801;BME280;6464;42.494;27.470;2022-10-01T06:48:18;101924.63;;;20.41;100.00
12801;BME280;6464;42.494;27.470;2022-10-01T06:50:47;102012.31;;;21.03;100.00
12801;BME280;6464;42.494;27.470;2022-10-01T06:53:15;101929.81;;;20.67;100.00
12801;BME280;6464;42.494;27.470;2022-10-01T06:55:44;101957.72;;;20.84;100.00
12801;BME280;6464;42.494;27.470;2022-10-01T06:58:13;101917.47;;;20.84;100.00
12801;BME280;6464;42.494;27.470;2022-10-01T07:00:42;101907.69;;;20.83;100.00
12801;BME280;6464;42.494;27.470;2022-10-01T07:03:13;101910.38;;;20.83;100.00
12801;BME280;6464;42.494;27.470;2022-10-01T07:05:40;101905.56;;;20.70;100.00
12801;BME280;6464;42.494;27.470;2022-10-01T07:08:08;101847.16;;;20.57;100.00
12801;BME280;6464;42.494;27.470;2022-10-01T07:10:35;101881.09;;;20.78;100.00
12801;BME280;6464;42.494;27.470;2022-10-01T07:13:08;101907.88;;;21.00;100.00
12801;BME280;6464;42.494;27.470;2022-10-01T07:15:36;101976.94;;;21.37;100.00
12801;BME280;6464;42.494;27.470;2022-10-01T07:18:03;101872.59;;;20.89;100.00
12801;BME280;6464;42.494;27.470;2022-10-01T07:20:31;101933.72;;;21.43;100.00
12801;BME280;6464;42.494;27.470;2022-10-01T07:23:01;101964.34;;;21.78;100.00
12801;BME280;6464;42.494;27.470;2022-10-01T07:25:28;101950.91;;;21.78;100.00
12801;BME280;6464;42.494;27.470;2022-10-01T07:27:56;101969.50;;;21.83;100.00
12801;BME280;6464;42.494;27.470;2022-10-01T07:30:25;101927.09;;;21.71;100.00
12801;BME280;6464;42.494;27.470;2022-10-01T07:32:53;101946.31;;;22.01;100.00
12801;BME280;6464;42.494;27.470;2022-10-01T07:35:21;101952.78;;;22.16;100.00
12801;BME280;6464;42.494;27.470;2022-10-01T07:37:50;101947.16;;;22.01;100.00
12801;BME280;6464;42.494;27.470;2022-10-01T07:40:20;101941.56;;;21.87;100.00
12801;BME280;6464;42.494;27.470;2022-10-01T07:42:51;102003.03;;;22.32;100.00
12801;BME280;6464;42.494;27.470;2022-10-01T07:45:20;101935.50;;;22.21;100.00
12801;BME280;6464;42.494;27.470;2022-10-01T07:47:53;101956.34;;;22.54;100.00
12801;BME280;6464;42.494;27.470;2022-10-01T07:50:20;101949.88;;;22.75;100.00
12801;BME280;6464;42.494;27.470;2022-10-01T07:52:50;101958.72;;;23.14;100.00
12801;BME280;6464;42.494;27.470;2022-10-01T07:55:18;102054.28;;;23.57;100.00
12801;BME280;6464;42.494;27.470;2022-10-01T07:57:49;102011.53;;;23.68;100.00
12801;BME280;6464;42.494;27.470;2022-10-01T08:00:16;102058.31;;;24.00;100.00
12801;BME280;6464;42.494;27.470;2022-10-01T08:02:47;102053.22;;;24.11;100.00
12801;BME280;6464;42.494;27.470;2022-10-01T08:05:17;101991.47;;;24.07;100.00
12801;BME280;6464;42.494;27.470;2022-10-01T08:07:44;102054.97;;;24.46;100.00
12801;BME280;6464;42.494;27.470;2022-10-01T08:10:13;102008.09;;;24.15;100.00
12801;BME280;6464;42.494;27.470;2022-10-01T08:12:40;102049.66;;;24.60;100.00
12801;BME280;6464;42.494;27.470;2022-10-01T08:15:09;101968.78;;;23.95;100.00
12801;BME280;6464;42.494;27.470;2022-10-01T08:17:36;101966.69;;;24.00;100.00
12801;BME280;6464;42.494;27.470;2022-10-01T08:20:04;101954.97;;;24.01;100.00
12801;BME280;6464;42.494;27.470;2022-10-01T08:22:33;101994.38;;;24.20;100.00
12801;BME280;6464;42.494;27.470;2022-10-01T08:25:00;102037.31;;;24.72;100.00
12801;BME280;6464;42.494;27.470;2022-10-01T08:27:27;101993.75;;;24.94;100.00
12801;BME280;6464;42.494;27.470;2022-10-01T08:29:54;102046.72;;;25.12;100.00
12801;BME280;6464;42.494;27.470;2022-10-01T08:32:22;102025.81;;;25.00;100.00
12801;BME280;6464;42.494;27.470;2022-10-01T08:34:52;102043.53;;;25.35;100.00
12801;BME280;6464;42.494;27.470;2022-10-01T08:37:24;102037.41;;;25.62;100.00
12801;BME280;6464;42.494;27.470;2022-10-01T08:39:54;102047.94;;;25.97;100.00
12801;BME280;6464;42.494;27.470;2022-10-01T08:42:34;102062.78;;;26.32;100.00
12801;BME280;6464;42.494;27.470;2022-10-01T08:45:10;102067.44;;;26.45;100.00
12801;BME280;6464;42.494;27.470;2022-10-01T08:47:42;102068.00;;;26.64;100.00
12801;BME280;6464;42.494;27.470;2022-10-01T08:50:22;102065.25;;;26.78;100.00
12801;BME280;6464;42.494;27.470;2022-10-01T08:52:56;102065.91;;;26.55;100.00
12801;BME280;6464;42.494;27.470;2022-10-01T08:55:27;102063.84;;;27.00;100.00
12801;BME280;6464;42.494;27.470;2022-10-01T08:58:02;102090.44;;;27.74;100.00
12801;BME280;6464;42.494;27.470;2022-10-01T09:00:33;102123.31;;;29.69;100.00
12801;BME280;6464;42.494;27.470;2022-10-01T09:03:04;102164.84;;;32.57;100.00
12801;BME280;6464;42.494;27.470;2022-10-01T09:05:39;102201.09;;;35.38;100.00
12801;BME280;6464;42.494;27.470;2022-10-01T09:08:20;102227.47;;;36.98;100.00
12801;BME280;6464;42.494;27.470;2022-10-01T09:10:55;102234.78;;;38.40;100.00
12801;BME280;6464;42.494;27.470;2022-10-01T09:13:50;102239.44;;;39.42;100.00
12801;BME280;6464;42.494;27.470;2022-10-01T09:16:24;102255.78;;;41.18;100.00
12801;BME280;6464;42.494;27.470;2022-10-01T09:19:09;102240.72;;;41.05;100.00
12801;BME280;6464;42.494;27.470;2022-10-01T09:21:48;102237.13;;;41.41;100.00
12801;BME280;6464;42.494;27.470;2022-10-01T09:24:27;102252.72;;;42.56;100.00
12801;BME280;6464;42.494;27.470;2022-10-01T09:27:10;102259.84;;;43.06;100.00
12801;BME280;6464;42.494;27.470;2022-10-01T09:29:42;102262.59;;;43.48;100.00
12801;BME280;6464;42.494;27.470;2022-10-01T09:32:12;102251.19;;;43.29;100.00
12801;BME280;6464;42.494;27.470;2022-10-01T09:34:43;102235.56;;;43.22;100.00
12801;BME280;6464;42.494;27.470;2022-10-01T09:37:14;102250.19;;;43.44;100.00
12801;BME280;6464;42.494;27.470;2022-10-01T09:39:53;102246.56;;;43.56;100.00
12801;BME280;6464;42.494;27.470;2022-10-01T09:42:26;102231.03;;;43.07;100.00
12801;BME280;6464;42.494;27.470;2022-10-01T09:44:55;102243.38;;;43.66;100.00
12801;BME280;6464;42.494;27.470;2022-10-01T09:47:23;102261.81;;;45.70;100.00
12801;BME280;6464;42.494;27.470;2022-10-01T09:49:50;102259.25;;;45.68;100.00
12801;BME280;6464;42.494;27.470;2022-10-01T09:52:20;102245.31;;;45.30;100.00
12801;BME280;6464;42.494;27.470;2022-10-01T09:54:56;102238.34;;;45.52;100.00
12801;BME280;6464;42.494;27.470;2022-10-01T09:57:30;102225.38;;;44.88;100.00
12801;BME280;6464;42.494;27.470;2022-10-01T10:00:04;102201.31;;;44.35;100.00
12801;BME280;6464;42.494;27.470;2022-10-01T10:02:38;102220.78;;;45.13;100.00
12801;BME280;6464;42.494;27.470;2022-10-01T10:05:12;102230.06;;;45.39;100.00
12801;BME280;6464;42.494;27.470;2022-10-01T10:07:43;102200.88;;;44.12;100.00
12801;BME280;6464;42.494;27.470;2022-10-01T10:10:16;102189.06;;;44.43;100.00
12801;BME280;6464;42.494;27.470;2022-10-01T10:12:47;102183.56;;;44.03;100.00
12801;BME280;6464;42.494;27.470;2022-10-01T10:15:21;102203.25;;;46.01;100.00
12801;BME280;6464;42.494;27.470;2022-10-01T10:17:51;102209.72;;;47.00;100.00
12801;BME280;6464;42.494;27.470;2022-10-01T10:20:24;102197.00;;;47.88;100.00
12801;BME280;6464;42.494;27.470;2022-10-01T10:23:04;102112.78;;;43.79;100.00
12801;BME280;6464;42.494;27.470;2022-10-01T10:25:31;102071.53;;;40.72;100.00
12801;BME280;6464;42.494;27.470;2022-10-01T10:28:00;102063.00;;;41.10;100.00
12801;BME280;6464;42.494;27.470;2022-10-01T10:30:28;102067.66;;;41.09;100.00
12801;BME280;6464;42.494;27.470;2022-10-01T10:33:02;102052.28;;;40.05;100.00
12801;BME280;6464;42.494;27.470;2022-10-01T10:35:30;102059.81;;;41.56;100.00
12801;BME280;6464;42.494;27.470;2022-10-01T10:37:57;102068.06;;;42.05;100.00
12801;BME280;6464;42.494;27.470;2022-10-01T10:40:26;102011.56;;;38.63;100.00
12801;BME280;6464;42.494;27.470;2022-10-01T10:42:57;101995.97;;;37.44;100.00
12801;BME280;6464;42.494;27.470;2022-10-01T10:45:30;101990.56;;;38.30;100.00
12801;BME280;6464;42.494;27.470;2022-10-01T10:47:58;102001.13;;;39.65;100.00
12801;BME280;6464;42.494;27.470;2022-10-01T10:50:31;102034.75;;;42.27;100.00
12801;BME280;6464;42.494;27.470;2022-10-01T10:53:02;102082.75;;;44.41;100.00
12801;BME280;6464;42.494;27.470;2022-10-01T10:55:36;102088.22;;;45.62;100.00
12801;BME280;6464;42.494;27.470;2022-10-01T10:58:12;102094.59;;;45.70;100.00
12801;BME280;6464;42.494;27.470;2022-10-01T11:00:46;101982.28;;;40.49;100.00
12801;BME280;6464;42.494;27.470;2022-10-01T11:03:15;101970.63;;;39.43;100.00
12801;BME280;6464;42.494;27.470;2022-10-01T11:05:43;101906.97;;;38.07;100.00
12801;BME280;6464;42.494;27.470;2022-10-01T11:08:12;101930.06;;;38.06;100.00
12801;BME280;6464;42.494;27.470;2022-10-01T11:10:50;101933.06;;;39.72;100.00
12801;BME280;6464;42.494;27.470;2022-10-01T11:13:31;101907.06;;;37.02;100.00
12801;BME280;6464;42.494;27.470;2022-10-01T11:16:17;101894.41;;;37.65;100.00
12801;BME280;6464;42.494;27.470;2022-10-01T11:19:02;101915.59;;;37.56;100.00
12801;BME280;6464;42.494;27.470;2022-10-01T11:21:52;101917.34;;;37.41;100.00
12801;BME280;6464;42.494;27.470;2022-10-01T11:24:48;101932.59;;;38.16;100.00
12801;BME280;6464;42.494;27.470;2022-10-01T11:27:22;101902.94;;;38.18;100.00
12801;BME280;6464;42.494;27.470;2022-10-01T11:30:00;101910.88;;;37.01;100.00
12801;BME280;6464;42.494;27.470;2022-10-01T11:32:37;101901.56;;;37.11;100.00
12801;BME280;6464;42.494;27.470;2022-10-01T11:35:27;101885.22;;;35.93;100.00
12801;BME280;6464;42.494;27.470;2022-10-01T11:38:19;101876.91;;;35.69;100.00
12801;BME280;6464;42.494;27.470;2022-10-01T11:40:54;101920.09;;;38.28;100.00
12801;BME280;6464;42.494;27.470;2022-10-01T11:43:27;101940.63;;;39.55;100.00
12801;BME280;6464;42.494;27.470;2022-10-01T11:46:05;101880.25;;;36.72;100.00
12801;BME280;6464;42.494;27.470;2022-10-01T11:48:38;101867.25;;;35.99;100.00
12801;BME280;6464;42.494;27.470;2022-10-01T11:51:10;101836.63;;;34.91;100.00
12801;BME280;6464;42.494;27.470;2022-10-01T11:53:41;101868.00;;;36.17;100.00
12801;BME280;6464;42.494;27.470;2022-10-01T11:56:15;101917.31;;;37.58;100.00
12801;BME280;6464;42.494;27.470;2022-10-01T11:59:05;101913.03;;;37.55;100.00
12801;BME280;6464;42.494;27.470;2022-10-01T12:01:37;101865.03;;;35.34;100.00
12801;BME280;6464;42.494;27.470;2022-10-01T12:04:18;101873.34;;;36.27;100.00
12801;BME280;6464;42.494;27.470;2022-10-01T12:06:55;101890.81;;;37.56;100.00
12801;BME280;6464;42.494;27.470;2022-10-01T12:09:30;101906.16;;;37.98;100.00
12801;BME280;6464;42.494;27.470;2022-10-01T12:12:04;101875.63;;;36.80;100.00
12801;BME280;6464;42.494;27.470;2022-10-01T12:14:39;101804.91;;;35.83;100.00
12801;BME280;6464;42.494;27.470;2022-10-01T12:17:11;101895.16;;;38.98;100.00
12801;BME280;6464;42.494;27.470;2022-10-01T12:19:47;101933.25;;;41.00;100.00
12801;BME280;6464;42.494;27.470;2022-10-01T12:22:19;101958.91;;;41.72;100.00
12801;BME280;6464;42.494;27.470;2022-10-01T12:24:50;101935.25;;;40.64;100.00
12801;BME280;6464;42.494;27.470;2022-10-01T12:27:42;101847.69;;;36.02;100.00
12801;BME280;6464;42.494;27.470;2022-10-01T12:30:14;101814.06;;;33.45;100.00
12801;BME280;6464;42.494;27.470;2022-10-01T12:32:54;101760.28;;;31.63;100.00
12801;BME280;6464;42.494;27.470;2022-10-01T12:35:40;101773.16;;;30.48;100.00
12801;BME280;6464;42.494;27.470;2022-10-01T12:38:19;101779.72;;;31.39;100.00
12801;BME280;6464;42.494;27.470;2022-10-01T12:40:54;101824.47;;;32.36;100.00
12801;BME280;6464;42.494;27.470;2022-10-01T12:43:44;101833.94;;;32.52;100.00
12801;BME280;6464;42.494;27.470;2022-10-01T12:46:24;101824.88;;;32.90;100.00
12801;BME280;6464;42.494;27.470;2022-10-01T12:49:04;101866.56;;;35.02;100.00
12801;BME280;6464;42.494;27.470;2022-10-01T12:51:43;101900.19;;;36.66;100.00
12801;BME280;6464;42.494;27.470;2022-10-01T12:54:28;101888.88;;;36.85;100.00
12801;BME280;6464;42.494;27.470;2022-10-01T12:57:05;101886.97;;;36.94;100.00
12801;BME280;6464;42.494;27.470;2022-10-01T12:59:50;101898.03;;;38.05;100.00
12801;BME280;6464;42.494;27.470;2022-10-01T13:02:42;101883.69;;;37.87;100.00
12801;BME280;6464;42.494;27.470;2022-10-01T13:05:18;101854.84;;;36.62;100.00
12801;BME280;6464;42.494;27.470;2022-10-01T13:08:00;101849.47;;;35.77;100.00
12801;BME280;6464;42.494;27.470;2022-10-01T13:10:45;101807.19;;;34.93;100.00
12801;BME280;6464;42.494;27.470;2022-10-01T13:13:16;101784.75;;;33.28;100.00
12801;BME280;6464;42.494;27.470;2022-10-01T13:15:45;101764.66;;;32.04;100.00
12801;BME280;6464;42.494;27.470;2022-10-01T13:18:21;101758.97;;;31.67;100.00
12801;BME280;6464;42.494;27.470;2022-10-01T13:20:56;101743.19;;;30.69;100.00
12801;BME280;6464;42.494;27.470;2022-10-01T13:23:32;101756.69;;;30.91;100.00
12801;BME280;6464;42.494;27.470;2022-10-01T13:26:08;101750.94;;;30.94;100.00
12801;BME280;6464;42.494;27.470;2022-10-01T13:28:51;101745.50;;;30.94;100.00
12801;BME280;6464;42.494;27.470;2022-10-01T13:31:31;101739.16;;;31.15;100.00
12801;BME280;6464;42.494;27.470;2022-10-01T13:33:59;101733.13;;;30.81;100.00
12801;BME280;6464;42.494;27.470;2022-10-01T13:36:29;101726.91;;;31.00;100.00
12801;BME280;6464;42.494;27.470;2022-10-01T13:38:58;101702.63;;;30.66;100.00
12801;BME280;6464;42.494;27.470;2022-10-01T13:41:28;101703.13;;;31.11;100.00
12801;BME280;6464;42.494;27.470;2022-10-01T13:44:02;101704.91;;;31.72;100.00
12801;BME280;6464;42.494;27.470;2022-10-01T13:46:32;101708.66;;;32.95;100.00
12801;BME280;6464;42.494;27.470;2022-10-01T13:49:06;101738.59;;;34.85;
12801;BME280;6464;42.494;27.470;2022-10-01T13:51:40;101772.66;;;35.93;100.00
12801;BME280;6464;42.494;27.470;2022-10-01T13:54:21;101756.25;;;36.10;100.00
12801;BME280;6464;42.494;27.470;2022-10-01T13:56:49;101759.00;;;36.18;100.00
12801;BME280;6464;42.494;27.470;2022-10-01T13:59:34;101791.41;;;37.51;100.00
12801;BME280;6464;42.494;27.470;2022-10-01T14:02:02;101773.94;;;36.32;100.00
12801;BME280;6464;42.494;27.470;2022-10-01T14:04:35;101795.19;;;37.90;100.00
12801;BME280;6464;42.494;27.470;2022-10-01T14:07:11;101788.22;;;38.48;100.00
12801;BME280;6464;42.494;27.470;2022-10-01T14:09:44;101782.53;;;38.03;100.00
12801;BME280;6464;42.494;27.470;2022-10-01T14:12:16;101778.00;;;37.79;100.00
12801;BME280;6464;42.494;27.470;2022-10-01T14:15:13;101738.00;;;36.74;100.00
12801;BME280;6464;42.494;27.470;2022-10-01T14:18:00;101748.00;;;36.67;100.00
12801;BME280;6464;42.494;27.470;2022-10-01T14:20:37;101726.59;;;37.10;100.00
12801;BME280;6464;42.494;27.470;2022-10-01T14:23:12;101751.41;;;37.41;100.00
12801;BME280;6464;42.494;27.470;2022-10-01T14:25:48;101746.78;;;36.69;100.00
12801;BME280;6464;42.494;27.470;2022-10-01T14:28:28;101750.44;;;34.60;100.00
12801;BME280;6464;42.494;27.470;2022-10-01T14:31:05;101737.53;;;33.63;100.00
12801;BME280;6464;42.494;27.470;2022-10-01T14:33:49;101736.41;;;33.56;100.00
12801;BME280;6464;42.494;27.470;2022-10-01T14:36:26;101734.97;;;32.87;100.00
12801;BME280;6464;42.494;27.470;2022-10-01T14:39:17;101690.34;;;32.49;100.00
12801;BME280;6464;42.494;27.470;2022-10-01T14:41:46;101680.66;;;31.98;100.00
12801;BME280;6464;42.494;27.470;2022-10-01T14:44:25;101666.13;;;31.78;100.00
12801;BME280;6464;42.494;27.470;2022-10-01T14:46:53;101660.22;;;31.34;100.00
12801;BME280;6464;42.494;27.470;2022-10-01T14:49:22;101643.19;;;31.11;100.00
12801;BME280;6464;42.494;27.470;2022-10-01T14:51:54;101638.78;;;30.80;100.00
12801;BME280;6464;42.494;27.470;2022-10-01T14:54:22;101600.34;;;30.42;100.00
12801;BME280;6464;42.494;27.470;2022-10-01T14:56:51;101589.63;;;30.51;100.00
12801;BME280;6464;42.494;27.470;2022-10-01T14:59:24;101613.31;;;30.60;100.00
12801;BME280;6464;42.494;27.470;2022-10-01T15:01:56;101583.31;;;30.50;100.00
12801;BME280;6464;42.494;27.470;2022-10-01T15:04:23;101536.66;;;30.24;100.00
12801;BME280;6464;42.494;27.470;2022-10-01T15:06:50;101585.38;;;30.58;100.00
12801;BME280;6464;42.494;27.470;2022-10-01T15:09:17;101581.75;;;30.48;100.00
12801;BME280;6464;42.494;27.470;2022-10-01T15:11:47;101573.84;;;30.44;100.00
12801;BME280;6464;42.494;27.470;2022-10-01T15:14:20;101498.22;;;29.87;100.00
12801;BME280;6464;42.494;27.470;2022-10-01T15:16:48;101546.00;;;30.31;100.00
12801;BME280;6464;42.494;27.470;2022-10-01T15:19:17;101506.06;;;29.80;100.00
12801;BME280;6464;42.494;27.470;2022-10-01T15:21:48;101449.34;;;29.34;100.00
12801;BME280;6464;42.494;27.470;2022-10-01T15:24:22;101487.00;;;29.38;100.00
12801;BME280;6464;42.494;27.470;2022-10-01T15:26:51;101500.72;;;29.05;100.00
12801;BME280;6464;42.494;27.470;2022-10-01T15:29:20;101465.25;;;28.74;100.00
12801;BME280;6464;42.494;27.470;2022-10-01T15:31:49;101522.25;;;28.74;100.00
12801;BME280;6464;42.494;27.470;2022-10-01T15:34:19;101522.56;;;28.49;100.00
12801;BME280;6464;42.494;27.470;2022-10-01T15:36:48;101518.44;;;28.32;100.00
12801;BME280;6464;42.494;27.470;2022-10-01T15:39:37;101504.03;;;28.20;100.00
12801;BME280;6464;42.494;27.470;2022-10-01T15:42:06;101470.00;;;27.71;100.00
12801;BME280;6464;42.494;27.470;2022-10-01T15:44:41;101499.81;;;27.71;100.00
12801;BME280;6464;42.494;27.470;2022-10-01T15:47:30;101512.25;;;27.50;100.00
12801;BME280;6464;42.494;27.470;2022-10-01T15:50:15;101510.47;;;27.26;100.00
12801;BME280;6464;42.494;27.470;2022-10-01T15:52:48;101515.94;;;26.89;100.00
12801;BME280;6464;42.494;27.470;2022-10-01T15:55:18;101504.13;;;26.41;100.00
12801;BME280;6464;42.494;27.470;2022-10-01T15:57:49;101498.41;;;26.20;100.00
12801;BME280;6464;42.494;27.470;2022-10-01T16:00:23;101481.69;;;25.89;100.00
12801;BME280;6464;42.494;27.470;2022-10-01T16:02:51;101479.09;;;25.75;100.00
12801;BME280;6464;42.494;27.470;2022-10-01T16:05:20;101483.59;;;25.62;100.00
12801;BME280;6464;42.494;27.470;2022-10-01T16:07:52;101441.66;;;25.31;100.00